Time;durP1;ratioP1;P1;durP2;ratioP2;P2;SDS_P1;SDS_P2;PMS_P1;PMS_P2;Temp;Humidity;BMP_temperature;BMP_pressure;BME280_temperature;BME280_humidity;BME280_pressure;Samples;Min_cycle;Max_cycle;Signal;HPM_P1;HPM_P2
2023/10/25 00:01:08;;;;;;;;;;;8.20;87.50;;;;;;5090938;28;19934;-72
2023/10/25 00:03:35;;;;;;;;;;;8.20;87.50;;;;;;5108997;28;19966;-73
2023/10/25 00:06:01;;;;;;;;;;;8.30;87.50;;;;;;5109200;28;19908;-72
2023/10/25 00:08:26;;;;;;;;;;;8.20;87.40;;;;;;5108914;28;19912;-73
2023/10/25 00:11:05;;;;;;;;;;;8.20;87.30;;;;;;5109054;28;20003;-73
2023/10/25 00:13:31;;;;;;;;;;;8.20;87.40;;;;;;5108941;28;20037;-72
2023/10/25 00:15:57;;;;;;;;;;;8.20;87.30;;;;;;5108830;28;20002;-72
2023/10/25 00:18:24;;;;;;;;;;;8.10;87.30;;;;;;5108832;28;19916;-72
2023/10/25 00:20:50;;;;;;;;;;;8.10;87.40;;;;;;5109026;28;20392;-72
2023/10/25 00:23:17;;;;;;;;;;;8.10;87.30;;;;;;5108865;28;19923;-72
2023/10/25 00:25:43;;;;;;;;;;;8.00;87.40;;;;;;5108801;28;19920;-72
2023/10/25 00:28:08;;;;;;;;;;;8.00;87.50;;;;;;5108628;28;19916;-73
2023/10/25 00:30:34;;;;;;;;;;;8.10;87.60;;;;;;5108897;28;19937;-72
2023/10/25 00:32:59;;;;;;;;;;;8.00;87.50;;;;;;5108835;28;20410;-72
2023/10/25 00:35:25;;;;;;;;;;;8.00;87.40;;;;;;5108614;28;20344;-73
2023/10/25 00:37:51;;;;;;;;;;;8.00;87.50;;;;;;5108396;28;20337;-72
2023/10/25 00:40:17;;;;;;;;;;;8.00;87.40;;;;;;5108695;28;20011;-72
2023/10/25 00:42:42;;;;;;;;;;;8.00;87.30;;;;;;5090356;28;19916;-73
2023/10/25 00:45:08;;;;;;;;;;;8.00;87.30;;;;;;5073483;28;20272;-72
2023/10/25 00:47:33;;;;;;;;;;;8.00;87.30;;;;;;5090198;28;19918;-73
2023/10/25 00:49:59;;;;;;;;;;;7.90;87.40;;;;;;5090268;28;20260;-72
2023/10/25 00:52:25;;;;;;;;;;;7.90;87.50;;;;;;5090280;28;19955;-72
2023/10/25 00:54:51;;;;;;;;;;;7.90;87.50;;;;;;5108425;28;19912;-73
2023/10/25 00:57:16;;;;;;;;;;;7.90;87.50;;;;;;5109040;28;20023;-72
2023/10/25 00:59:42;;;;;;;;;;;8.00;87.50;;;;;;5112648;28;20394;-72
2023/10/25 01:02:08;;;;;;;;;;;8.00;87.40;;;;;;5112627;28;19914;-73
2023/10/25 01:04:33;;;;;;;;;;;8.00;87.20;;;;;;5094226;28;19923;-72
2023/10/25 01:06:59;;;;;;;;;;;8.10;87.10;;;;;;5112658;28;20260;-73
2023/10/25 01:09:25;;;;;;;;;;;8.10;87.10;;;;;;5112511;28;19958;-72
2023/10/25 01:11:50;;;;;;;;;;;8.10;87.00;;;;;;5094309;28;19922;-72
2023/10/25 01:14:16;;;;;;;;;;;8.10;87.10;;;;;;5112469;28;19922;-72
2023/10/25 01:16:41;;;;;;;;;;;8.10;87.10;;;;;;5112330;28;19915;-72
2023/10/25 01:19:07;;;;;;;;;;;8.00;87.10;;;;;;5112219;28;20280;-72
2023/10/25 01:21:32;;;;;;;;;;;8.00;87.20;;;;;;5112303;28;19920;-73
2023/10/25 01:23:58;;;;;;;;;;;8.00;87.20;;;;;;5112237;28;19921;-72
2023/10/25 01:26:23;;;;;;;;;;;7.90;87.10;;;;;;5112152;28;19911;-72
2023/10/25 01:28:49;;;;;;;;;;;7.80;87.20;;;;;;5112044;28;20372;-72
2023/10/25 01:31:15;;;;;;;;;;;7.80;87.20;;;;;;5111996;28;19915;-72
2023/10/25 01:33:41;;;;;;;;;;;7.70;87.40;;;;;;5112121;28;19912;-72
2023/10/25 01:36:06;;;;;;;;;;;7.70;87.40;;;;;;5111945;28;19919;-73
2023/10/25 01:38:32;;;;;;;;;;;7.70;87.40;;;;;;5093829;28;19912;-72
2023/10/25 01:40:57;;;;;;;;;;;7.80;87.40;;;;;;5111888;28;19919;-73
2023/10/25 01:43:24;;;;;;;;;;;7.80;87.30;;;;;;5111862;28;20026;-73
2023/10/25 01:45:49;;;;;;;;;;;7.80;87.20;;;;;;5111927;28;19919;-72
2023/10/25 01:48:15;;;;;;;;;;;7.90;87.20;;;;;;5111634;28;20414;-72
2023/10/25 01:50:40;;;;;;;;;;;7.90;87.10;;;;;;5111788;28;19931;-72
2023/10/25 01:53:06;;;;;;;;;;;8.00;87.00;;;;;;5111666;28;20068;-72
2023/10/25 01:55:31;;;;;;;;;;;8.10;87.10;;;;;;5111517;28;19915;-73
2023/10/25 01:57:57;;;;;;;;;;;8.20;87.10;;;;;;5093136;28;19916;-73
2023/10/25 02:00:23;;;;;;;;;;;8.20;87.10;;;;;;5111462;28;19916;-73
2023/10/25 02:02:48;;;;;;;;;;;8.30;87.00;;;;;;5092979;28;19961;-73
2023/10/25 02:05:14;;;;;;;;;;;8.30;86.90;;;;;;5111496;28;19920;-72
2023/10/25 02:07:40;;;;;;;;;;;8.20;86.90;;;;;;5111558;28;20329;-73
2023/10/25 02:10:06;;;;;;;;;;;8.20;87.00;;;;;;5092638;28;20437;-72
2023/10/25 02:12:31;;;;;;;;;;;8.10;87.00;;;;;;5111390;28;19912;-72
2023/10/25 02:14:57;;;;;;;;;;;8.10;86.90;;;;;;5111343;28;19912;-71
2023/10/25 02:17:23;;;;;;;;;;;8.10;86.90;;;;;;5111130;28;19920;-70
2023/10/25 02:19:48;;;;;;;;;;;8.00;86.90;;;;;;5092846;28;19912;-71
2023/10/25 02:22:14;;;;;;;;;;;8.00;87.00;;;;;;5111146;28;20293;-70
2023/10/25 02:24:39;;;;;;;;;;;7.90;87.00;;;;;;5092723;28;19919;-71
2023/10/25 02:27:05;;;;;;;;;;;7.90;87.00;;;;;;5111106;28;19936;-72
2023/10/25 02:29:31;;;;;;;;;;;7.90;87.00;;;;;;5111435;28;19958;-72
2023/10/25 02:31:57;;;;;;;;;;;7.90;86.90;;;;;;5110905;28;20390;-73
2023/10/25 02:34:22;;;;;;;;;;;7.90;86.80;;;;;;5092736;28;19911;-72
2023/10/25 02:36:48;;;;;;;;;;;7.90;86.70;;;;;;5092616;28;19916;-73
2023/10/25 02:39:13;;;;;;;;;;;7.90;86.70;;;;;;5110654;28;19919;-73
2023/10/25 02:41:39;;;;;;;;;;;7.80;86.60;;;;;;5110951;28;19912;-73
2023/10/25 02:44:05;;;;;;;;;;;7.80;86.60;;;;;;5110728;28;19918;-72
2023/10/25 02:46:30;;;;;;;;;;;7.80;86.60;;;;;;5110568;28;19925;-72
2023/10/25 02:48:56;;;;;;;;;;;7.80;86.60;;;;;;5110518;28;19999;-72
2023/10/25 02:51:21;;;;;;;;;;;7.80;87.10;;;;;;5110593;28;19912;-72
2023/10/25 02:53:47;;;;;;;;;;;7.80;86.60;;;;;;5110463;28;20057;-73
2023/10/25 02:56:13;;;;;;;;;;;7.90;86.60;;;;;;5092231;28;19923;-73
2023/10/25 02:58:38;;;;;;;;;;;7.80;86.60;;;;;;5110414;28;19919;-73
2023/10/25 03:01:04;;;;;;;;;;;7.80;86.70;;;;;;5092313;28;19911;-72
2023/10/25 03:03:30;;;;;;;;;;;7.80;86.80;;;;;;5091843;28;19920;-73
2023/10/25 03:05:56;;;;;;;;;;;7.80;86.80;;;;;;5110272;28;19998;-72
2023/10/25 03:08:22;;;;;;;;;;;7.80;86.80;;;;;;5110182;28;20015;-73
2023/10/25 03:10:48;;;;;;;;;;;7.90;87.00;;;;;;5110130;28;19919;-72
2023/10/25 03:13:13;;;;;;;;;;;7.90;87.00;;;;;;5110098;28;19912;-73
2023/10/25 03:15:39;;;;;;;;;;;7.90;87.10;;;;;;5110056;28;19923;-73
2023/10/25 03:18:05;;;;;;;;;;;7.80;87.20;;;;;;5110067;28;19908;-71
2023/10/25 03:20:31;;;;;;;;;;;7.80;87.50;;;;;;5109089;28;19962;-72
2023/10/25 03:22:57;;;;;;;;;;;7.80;87.50;;;;;;5110131;28;19908;-73
2023/10/25 03:25:22;;;;;;;;;;;7.80;87.50;;;;;;5110197;28;19923;-72
2023/10/25 03:27:48;;;;;;;;;;;7.80;87.60;;;;;;5091576;28;19908;-73
2023/10/25 03:30:14;;;;;;;;;;;7.80;87.60;;;;;;5109732;28;19962;-73
2023/10/25 03:32:39;;;;;;;;;;;7.80;87.60;;;;;;5109546;28;19912;-73
2023/10/25 03:35:05;;;;;;;;;;;7.90;87.70;;;;;;5109633;28;19915;-72
2023/10/25 03:37:31;;;;;;;;;;;7.90;87.60;;;;;;5109655;28;19919;-73
2023/10/25 03:39:56;;;;;;;;;;;7.90;87.60;;;;;;5109473;28;19931;-72
2023/10/25 03:42:22;;;;;;;;;;;7.90;87.40;;;;;;5109482;28;19912;-73
2023/10/25 03:44:47;;;;;;;;;;;7.80;87.20;;;;;;5109552;28;19931;-73
2023/10/25 03:47:13;;;;;;;;;;;7.80;87.20;;;;;;5109271;28;19916;-72
2023/10/25 03:49:39;;;;;;;;;;;7.70;87.20;;;;;;5090752;28;19922;-71
2023/10/25 03:52:04;;;;;;;;;;;7.60;87.10;;;;;;5109105;28;19922;-70
2023/10/25 03:54:30;;;;;;;;;;;7.50;87.20;;;;;;5090927;28;19912;-71
2023/10/25 03:56:56;;;;;;;;;;;7.40;87.30;;;;;;5090882;28;19961;-70
2023/10/25 03:59:21;;;;;;;;;;;7.40;87.40;;;;;;5090695;28;19923;-71
2023/10/25 04:01:47;;;;;;;;;;;7.40;87.50;;;;;;5091033;28;20011;-70
2023/10/25 04:04:12;;;;;;;;;;;7.40;87.50;;;;;;5108943;28;19924;-71
2023/10/25 04:06:38;;;;;;;;;;;7.30;87.20;;;;;;5108954;28;19908;-70
2023/10/25 04:09:08;;;;;;;;;;;7.30;87.30;;;;;;5090173;28;20461;-70
2023/10/25 04:11:33;;;;;;;;;;;7.20;87.20;;;;;;5090815;28;19911;-70
2023/10/25 04:13:59;;;;;;;;;;;7.20;87.50;;;;;;5108967;28;20409;-70
2023/10/25 04:16:24;;;;;;;;;;;7.20;87.60;;;;;;5090966;28;20474;-70
2023/10/25 04:18:50;;;;;;;;;;;7.20;87.50;;;;;;5090667;28;19912;-70
2023/10/25 04:21:15;;;;;;;;;;;7.30;87.30;;;;;;5108970;28;19924;-70
2023/10/25 04:23:41;;;;;;;;;;;7.20;87.20;;;;;;5108764;28;19957;-70
2023/10/25 04:26:07;;;;;;;;;;;7.20;87.30;;;;;;5090549;28;19916;-70
2023/10/25 04:28:34;;;;;;;;;;;7.20;87.50;;;;;;5108752;28;20371;-70
2023/10/25 04:30:59;;;;;;;;;;;7.20;87.60;;;;;;5090344;28;19916;-70
2023/10/25 04:33:25;;;;;;;;;;;7.20;87.70;;;;;;5108817;28;20355;-70
2023/10/25 04:35:51;;;;;;;;;;;7.30;87.50;;;;;;5108773;28;20363;-71
2023/10/25 04:38:16;;;;;;;;;;;7.40;87.20;;;;;;5108661;28;20011;-71
2023/10/25 04:40:42;;;;;;;;;;;7.40;87.20;;;;;;5108546;28;19955;-70
2023/10/25 04:43:07;;;;;;;;;;;7.50;87.10;;;;;;5090382;28;19912;-70
2023/10/25 04:45:36;;;;;;;;;;;7.50;87.00;;;;;;5108533;28;19912;-70
2023/10/25 04:48:01;;;;;;;;;;;7.40;87.10;;;;;;5108376;28;19958;-70
2023/10/25 04:50:32;;;;;;;;;;;7.40;87.20;;;;;;5108575;28;20410;-70
2023/10/25 04:52:58;;;;;;;;;;;7.40;87.20;;;;;;5108668;28;19951;-71
2023/10/25 04:55:26;;;;;;;;;;;7.50;87.20;;;;;;5090078;28;19972;-70
2023/10/25 04:57:51;;;;;;;;;;;7.50;87.10;;;;;;5107971;28;19916;-71
2023/10/25 05:00:17;;;;;;;;;;;7.50;87.10;;;;;;5108622;28;20229;-72
2023/10/25 05:02:43;;;;;;;;;;;7.40;87.10;;;;;;5108216;28;20007;-73
2023/10/25 05:05:08;;;;;;;;;;;7.40;87.00;;;;;;5090019;28;19919;-73
2023/10/25 05:07:35;;;;;;;;;;;7.40;87.00;;;;;;5108278;28;19996;-72
2023/10/25 05:10:00;;;;;;;;;;;7.40;86.90;;;;;;5108207;28;19912;-72
2023/10/25 05:12:36;;;;;;;;;;;7.40;86.90;;;;;;5108448;28;20274;-72
2023/10/25 05:15:02;;;;;;;;;;;7.40;86.80;;;;;;5108190;28;20280;-72
2023/10/25 05:17:27;;;;;;;;;;;7.40;87.00;;;;;;5108211;28;19920;-72
2023/10/25 05:19:53;;;;;;;;;;;7.40;87.00;;;;;;5072941;28;19912;-73
2023/10/25 05:22:21;;;;;;;;;;;7.40;87.00;;;;;;5108175;28;19916;-72
2023/10/25 05:24:46;;;;;;;;;;;7.30;87.00;;;;;;5107962;28;19961;-70
2023/10/25 05:27:12;;;;;;;;;;;7.30;87.20;;;;;;5107977;28;20166;-72
2023/10/25 05:29:38;;;;;;;;;;;7.30;87.20;;;;;;5108040;28;19943;-73
2023/10/25 05:32:04;;;;;;;;;;;7.30;87.30;;;;;;5108026;28;20321;-72
2023/10/25 05:34:29;;;;;;;;;;;7.30;87.40;;;;;;5107994;28;19908;-72
2023/10/25 05:36:55;;;;;;;;;;;7.40;87.30;;;;;;5108032;28;19961;-72
2023/10/25 05:39:21;;;;;;;;;;;7.40;87.20;;;;;;5107827;28;19920;-72
2023/10/25 05:41:47;;;;;;;;;;;7.50;87.20;;;;;;5107836;28;20003;-72
2023/10/25 05:44:14;;;;;;;;;;;7.50;87.10;;;;;;5109956;28;19955;-72
2023/10/25 05:46:40;;;;;;;;;;;7.50;87.20;;;;;;5111593;28;19921;-72
2023/10/25 05:49:06;;;;;;;;;;;7.50;87.10;;;;;;5111634;28;19982;-72
2023/10/25 05:51:32;;;;;;;;;;;7.50;87.00;;;;;;5111543;28;20340;-73
2023/10/25 05:53:58;;;;;;;;;;;7.50;86.90;;;;;;5111560;28;19994;-72
2023/10/25 05:56:26;;;;;;;;;;;7.50;86.80;;;;;;5111559;28;19915;-72
2023/10/25 05:58:55;;;;;;;;;;;7.40;86.80;;;;;;5111233;28;19908;-72
2023/10/25 06:01:39;;;;;;;;;;;7.40;86.90;;;;;;5111397;28;19914;-72
2023/10/25 06:04:05;;;;;;;;;;;7.40;87.00;;;;;;5111132;28;19938;-72
2023/10/25 06:06:32;;;;;;;;;;;7.30;87.00;;;;;;5092967;28;19916;-72
2023/10/25 06:08:58;;;;;;;;;;;7.30;87.00;;;;;;5111006;28;20404;-71
2023/10/25 06:11:24;;;;;;;;;;;7.30;87.00;;;;;;5111110;28;19911;-71
2023/10/25 06:13:53;;;;;;;;;;;7.20;87.00;;;;;;5111025;28;19912;-71
2023/10/25 06:16:18;;;;;;;;;;;7.20;86.90;;;;;;5110985;28;19997;-72
2023/10/25 06:18:44;;;;;;;;;;;7.20;86.80;;;;;;5110159;28;20125;-72
2023/10/25 06:21:09;;;;;;;;;;;7.20;86.70;;;;;;5111091;28;19947;-72
2023/10/25 06:23:35;;;;;;;;;;;7.20;86.70;;;;;;5111057;28;19915;-72
2023/10/25 06:26:03;;;;;;;;;;;7.10;86.60;;;;;;5111016;28;19919;-73
2023/10/25 06:28:29;;;;;;;;;;;7.10;86.60;;;;;;5110440;28;19908;-72
2023/10/25 06:30:54;;;;;;;;;;;7.10;86.60;;;;;;5110758;28;19981;-72
2023/10/25 06:33:20;;;;;;;;;;;7.10;86.60;;;;;;5110662;28;20260;-72
2023/10/25 06:35:45;;;;;;;;;;;7.10;86.60;;;;;;5092378;28;19919;-73
2023/10/25 06:38:11;;;;;;;;;;;7.10;86.60;;;;;;5110386;28;19916;-72
2023/10/25 06:40:37;;;;;;;;;;;7.00;86.60;;;;;;5092674;28;19911;-72
2023/10/25 06:43:03;;;;;;;;;;;7.00;86.60;;;;;;5092339;28;19916;-72
2023/10/25 06:45:28;;;;;;;;;;;7.00;86.60;;;;;;5110497;28;19907;-73
2023/10/25 06:47:54;;;;;;;;;;;6.90;86.60;;;;;;5110249;28;20133;-73
2023/10/25 06:50:20;;;;;;;;;;;6.90;86.80;;;;;;5109659;28;20003;-72
2023/10/25 06:52:45;;;;;;;;;;;6.90;86.90;;;;;;5110763;28;20002;-72
2023/10/25 06:55:11;;;;;;;;;;;6.80;86.80;;;;;;5108770;28;19936;-73
2023/10/25 06:57:37;;;;;;;;;;;6.80;86.70;;;;;;5109718;28;19916;-73
2023/10/25 07:00:06;;;;;;;;;;;6.80;86.70;;;;;;5109737;28;19960;-72
2023/10/25 07:02:40;;;;;;;;;;;6.90;86.70;;;;;;5110227;28;20029;-73
2023/10/25 07:05:10;;;;;;;;;;;6.90;86.70;;;;;;5088051;28;19965;-72
2023/10/25 07:07:36;;;;;;;;;;;6.80;86.60;;;;;;5089510;28;20283;-72
2023/10/25 07:10:03;;;;;;;;;;;6.80;86.60;;;;;;5089133;28;19913;-72
2023/10/25 07:12:30;;;;;;;;;;;6.80;86.60;;;;;;5089428;28;19925;-72
2023/10/25 07:14:56;;;;;;;;;;;6.90;86.70;;;;;;5089426;28;19912;-72
2023/10/25 07:17:21;;;;;;;;;;;6.90;86.70;;;;;;5088035;28;20261;-72
2023/10/25 07:19:47;;;;;;;;;;;6.90;86.70;;;;;;5089136;28;19939;-72
2023/10/25 07:22:13;;;;;;;;;;;7.00;86.70;;;;;;5089285;28;19920;-73
2023/10/25 07:24:38;;;;;;;;;;;7.10;86.90;;;;;;5089125;28;20511;-72
2023/10/25 07:27:04;;;;;;;;;;;7.20;87.00;;;;;;5088824;28;19981;-72
2023/10/25 07:29:31;;;;;;;;;;;7.30;87.00;;;;;;5088946;28;19913;-73
2023/10/25 07:31:56;;;;;;;;;;;7.40;86.90;;;;;;5087516;28;19923;-72
2023/10/25 07:34:22;;;;;;;;;;;7.30;86.70;;;;;;5088845;28;19912;-72
2023/10/25 07:36:48;;;;;;;;;;;7.30;86.70;;;;;;5088723;28;20218;-72
2023/10/25 07:39:15;;;;;;;;;;;7.30;86.70;;;;;;5088721;28;20402;-72
2023/10/25 07:41:41;;;;;;;;;;;7.30;86.70;;;;;;5088619;28;19912;-72
2023/10/25 07:44:06;;;;;;;;;;;7.30;86.70;;;;;;5088193;28;19908;-72
2023/10/25 07:46:32;;;;;;;;;;;7.40;86.80;;;;;;5088469;28;20067;-73
2023/10/25 07:48:58;;;;;;;;;;;7.40;86.80;;;;;;5087366;28;19915;-73
2023/10/25 07:51:23;;;;;;;;;;;7.40;86.80;;;;;;5088329;28;19912;-72
2023/10/25 07:53:49;;;;;;;;;;;7.50;86.90;;;;;;5088796;28;19913;-72
2023/10/25 07:56:14;;;;;;;;;;;7.50;87.50;;;;;;5088223;28;20027;-72
2023/10/25 07:58:40;;;;;;;;;;;7.60;87.20;;;;;;5088104;28;19913;-72
2023/10/25 08:01:06;;;;;;;;;;;7.70;87.20;;;;;;5087926;28;19912;-72
2023/10/25 08:03:31;;;;;;;;;;;7.80;87.10;;;;;;5086529;28;20023;-74
2023/10/25 08:05:57;;;;;;;;;;;7.90;87.10;;;;;;5087432;28;20079;-74
2023/10/25 08:08:22;;;;;;;;;;;8.00;87.20;;;;;;5086424;28;20242;-74
2023/10/25 08:10:48;;;;;;;;;;;8.00;87.10;;;;;;5086460;28;19919;-74
2023/10/25 08:13:14;;;;;;;;;;;8.10;87.10;;;;;;5086522;28;19912;-74
2023/10/25 08:15:39;;;;;;;;;;;8.10;87.10;;;;;;5087178;28;19912;-73
2023/10/25 08:18:05;;;;;;;;;;;8.20;87.20;;;;;;5087965;28;20007;-74
2023/10/25 08:20:34;;;;;;;;;;;8.20;87.30;;;;;;5088114;28;19997;-74
2023/10/25 08:23:00;;;;;;;;;;;8.30;87.50;;;;;;5086714;28;19908;-75
2023/10/25 08:25:26;;;;;;;;;;;8.40;88.10;;;;;;5087830;28;19912;-74
2023/10/25 08:27:51;;;;;;;;;;;8.50;87.70;;;;;;5086279;28;19919;-75
2023/10/25 08:30:20;;;;;;;;;;;8.70;88.40;;;;;;5068595;28;19912;-69
2023/10/25 08:32:46;;;;;;;;;;;9.10;88.80;;;;;;5087146;28;19919;-75
2023/10/25 08:35:12;;;;;;;;;;;9.80;89.80;;;;;;5086999;28;19908;-75
2023/10/25 08:37:37;;;;;;;;;;;10.50;89.60;;;;;;5068979;28;19942;-78
2023/10/25 08:40:03;;;;;;;;;;;11.00;89.10;;;;;;5086444;28;20023;-69
2023/10/25 08:42:29;;;;;;;;;;;11.50;89.20;;;;;;5087953;28;19912;-75
2023/10/25 08:44:54;;;;;;;;;;;12.00;89.30;;;;;;5086015;28;19981;-74
2023/10/25 08:47:20;;;;;;;;;;;12.50;90.10;;;;;;5087036;28;19919;-74
2023/10/25 08:49:45;;;;;;;;;;;13.00;90.10;;;;;;5087118;28;19919;-74
2023/10/25 08:52:11;;;;;;;;;;;13.20;89.30;;;;;;5085896;28;20005;-75
2023/10/25 08:54:37;;;;;;;;;;;13.20;88.60;;;;;;5085470;28;19912;-74
2023/10/25 08:57:05;;;;;;;;;;;13.10;88.10;;;;;;5087181;28;20394;-73
2023/10/25 08:59:40;;;;;;;;;;;12.80;87.70;;;;;;5087366;28;19917;-74
2023/10/25 09:02:06;;;;;;;;;;;12.60;88.00;;;;;;5086753;28;19908;-75
2023/10/25 09:04:31;;;;;;;;;;;13.00;90.20;;;;;;5100717;28;19927;-75
2023/10/25 09:06:57;;;;;;;;;;;13.90;90.80;;;;;;5088725;28;20015;-75
2023/10/25 09:09:22;;;;;;;;;;;15.00;91.00;;;;;;5107056;28;19968;-74
2023/10/25 09:11:49;;;;;;;;;;;16.10;90.90;;;;;;5089405;28;19965;-73
2023/10/25 09:14:15;;;;;;;;;;;17.00;90.80;;;;;;5106464;28;20047;-73
2023/10/25 09:16:42;;;;;;;;;;;17.90;90.80;;;;;;5081765;28;20037;-74
2023/10/25 09:19:08;;;;;;;;;;;18.70;90.70;;;;;;5097159;28;19918;-72
2023/10/25 09:21:34;;;;;;;;;;;19.30;90.40;;;;;;5112589;28;19968;-74
2023/10/25 09:24:02;;;;;;;;;;;19.70;90.10;;;;;;5091016;28;19919;-73
2023/10/25 09:26:39;;;;;;;;;;;19.90;89.80;;;;;;5093145;28;20317;-74
2023/10/25 09:29:05;;;;;;;;;;;19.90;89.30;;;;;;5083959;28;19955;-73
2023/10/25 09:31:31;;;;;;;;;;;19.70;89.20;;;;;;5111112;28;19966;-74
2023/10/25 09:33:57;;;;;;;;;;;19.40;88.90;;;;;;5111774;28;20275;-73
2023/10/25 09:36:23;;;;;;;;;;;19.00;88.80;;;;;;5091188;28;20303;-74
2023/10/25 09:38:49;;;;;;;;;;;18.80;89.30;;;;;;5093168;28;19907;-74
2023/10/25 09:41:15;;;;;;;;;;;18.70;89.90;;;;;;5111567;28;20386;-74
2023/10/25 09:43:44;;;;;;;;;;;18.80;90.20;;;;;;5111120;28;19947;-74
2023/10/25 09:46:11;;;;;;;;;;;18.90;90.20;;;;;;5108296;28;19918;-73
2023/10/25 09:48:38;;;;;;;;;;;19.00;90.10;;;;;;5111036;28;19923;-74
2023/10/25 09:51:12;;;;;;;;;;;19.10;90.10;;;;;;5110479;28;20276;-74
2023/10/25 09:53:38;;;;;;;;;;;19.20;90.10;;;;;;5109875;28;20386;-74
2023/10/25 09:56:04;;;;;;;;;;;19.20;90.10;;;;;;5109758;28;19908;-73
2023/10/25 09:58:32;;;;;;;;;;;19.10;90.20;;;;;;5110925;28;20013;-74
2023/10/25 10:00:59;;;;;;;;;;;19.20;90.30;;;;;;5092541;28;19915;-73
2023/10/25 10:03:32;;;;;;;;;;;19.30;90.20;;;;;;5110087;28;19961;-73
2023/10/25 10:06:11;;;;;;;;;;;19.40;90.20;;;;;;5110422;28;19907;-72
2023/10/25 10:08:57;;;;;;;;;;;19.60;90.60;;;;;;5105817;28;19908;-73
2023/10/25 10:11:25;;;;;;;;;;;20.00;90.80;;;;;;5091819;28;20636;-73
2023/10/25 10:14:11;;;;;;;;;;;20.60;90.90;;;;;;5093757;28;19908;-78
2023/10/25 10:16:37;;;;;;;;;;;21.20;90.90;;;;;;5098491;28;20262;-76
2023/10/25 10:19:02;;;;;;;;;;;21.80;90.80;;;;;;5111048;28;19920;-76
2023/10/25 10:21:28;;;;;;;;;;;22.30;90.70;;;;;;5111099;28;19912;-76
2023/10/25 10:23:53;;;;;;;;;;;22.70;90.70;;;;;;5111179;28;20500;-77
2023/10/25 10:26:38;;;;;;;;;;;23.20;90.80;;;;;;5087919;28;20250;-77
2023/10/25 10:29:04;;;;;;;;;;;23.60;90.70;;;;;;5108137;28;19972;-77
2023/10/25 10:31:29;;;;;;;;;;;24.00;90.80;;;;;;5110659;28;19916;-77
2023/10/25 10:33:55;;;;;;;;;;;24.40;91.00;;;;;;5111537;28;19916;-77
2023/10/25 10:36:30;;;;;;;;;;;24.80;91.10;;;;;;5092978;28;20387;-77
2023/10/25 10:39:16;;;;;;;;;;;25.20;91.20;;;;;;5095723;28;19915;-77
2023/10/25 10:41:42;;;;;;;;;;;25.60;91.40;;;;;;5108966;28;20306;-76
2023/10/25 10:44:08;;;;;;;;;;;26.00;91.30;;;;;;5110707;28;19953;-77
2023/10/25 10:47:03;;;;;;;;;;;26.20;91.20;;;;;;5110113;28;19908;-79
2023/10/25 10:49:32;;;;;;;;;;;26.20;91.30;;;;;;5084729;28;19912;-77
2023/10/25 10:51:58;;;;;;;;;;;26.50;91.40;;;;;;5107130;28;19931;-80
2023/10/25 10:54:24;;;;;;;;;;;26.50;91.30;;;;;;5110568;28;20315;-82
2023/10/25 10:56:50;;;;;;;;;;;26.60;91.20;;;;;;5108702;28;19912;-77
2023/10/25 10:59:15;;;;;;;;;;;26.40;90.90;;;;;;5110679;28;20287;-76
2023/10/25 11:01:43;;;;;;;;;;;25.90;90.90;;;;;;5110472;28;19908;-76
2023/10/25 11:04:08;;;;;;;;;;;25.50;90.80;;;;;;5106959;28;20395;-76
2023/10/25 11:06:34;;;;;;;;;;;25.00;90.80;;;;;;5072931;28;20025;-77
2023/10/25 11:08:59;;;;;;;;;;;24.50;91.00;;;;;;5109601;28;20345;-76
2023/10/25 11:11:25;;;;;;;;;;;23.90;90.90;;;;;;5074188;28;19911;-76
2023/10/25 11:13:50;;;;;;;;;;;23.20;90.90;;;;;;5109694;28;20016;-76
2023/10/25 11:16:16;;;;;;;;;;;22.50;90.90;;;;;;5109517;28;19912;-76
2023/10/25 11:18:42;;;;;;;;;;;21.80;91.30;;;;;;5109443;28;19983;-76
2023/10/25 11:21:08;;;;;;;;;;;21.50;91.80;;;;;;5110017;28;19939;-76
2023/10/25 11:23:33;;;;;;;;;;;21.40;92.30;;;;;;5110238;28;19947;-76
2023/10/25 11:25:59;;;;;;;;;;;21.60;92.20;;;;;;5109947;28;19951;-77
2023/10/25 11:28:26;;;;;;;;;;;21.90;92.40;;;;;;5109663;28;19941;-75
2023/10/25 11:30:51;;;;;;;;;;;22.20;92.50;;;;;;5110014;28;20279;-75
2023/10/25 11:33:17;;;;;;;;;;;22.50;92.40;;;;;;5110071;28;19908;-77
2023/10/25 11:35:43;;;;;;;;;;;22.80;92.50;;;;;;5091182;28;19911;-76
2023/10/25 11:38:12;;;;;;;;;;;23.20;92.70;;;;;;5109095;28;20391;-75
2023/10/25 11:40:43;;;;;;;;;;;23.70;92.60;;;;;;5091091;28;19945;-76
2023/10/25 11:43:09;;;;;;;;;;;24.00;92.30;;;;;;5109458;28;19998;-76
2023/10/25 11:45:36;;;;;;;;;;;24.30;92.40;;;;;;5109878;28;19919;-76
2023/10/25 11:48:02;;;;;;;;;;;24.40;92.00;;;;;;5090686;28;19942;-69
2023/10/25 11:50:28;;;;;;;;;;;24.20;92.20;;;;;;5087434;28;20315;-76
2023/10/25 11:52:53;;;;;;;;;;;24.20;92.30;;;;;;5109441;28;19987;-76
2023/10/25 11:55:19;;;;;;;;;;;24.30;92.70;;;;;;5109142;28;19912;-74
2023/10/25 11:57:44;;;;;;;;;;;24.50;92.50;;;;;;5108932;28;19967;-76
2023/10/25 12:00:10;;;;;;;;;;;24.80;92.40;;;;;;5090498;28;19912;-76
2023/10/25 12:02:36;;;;;;;;;;;24.90;92.40;;;;;;5090128;28;19915;-76
2023/10/25 12:05:03;;;;;;;;;;;24.90;92.30;;;;;;5108832;28;19924;-77
2023/10/25 12:07:30;;;;;;;;;;;24.70;92.20;;;;;;5087637;28;19918;-76
2023/10/25 12:09:56;;;;;;;;;;;24.60;92.50;;;;;;5107981;28;19912;-75
2023/10/25 12:12:22;;;;;;;;;;;24.60;92.30;;;;;;5108789;28;19915;-74
2023/10/25 12:14:48;;;;;;;;;;;24.40;92.10;;;;;;5109043;28;20383;-78
2023/10/25 12:17:13;;;;;;;;;;;24.20;92.10;;;;;;5109006;28;19950;-76
2023/10/25 12:19:39;;;;;;;;;;;23.90;92.20;;;;;;5090369;28;19998;-73
2023/10/25 12:22:07;;;;;;;;;;;23.70;92.20;;;;;;5108506;28;19908;-76
2023/10/25 12:24:33;;;;;;;;;;;23.50;91.90;;;;;;5090443;28;20345;-74
2023/10/25 12:26:59;;;;;;;;;;;23.10;91.70;;;;;;5108865;28;19912;-76
2023/10/25 12:29:25;;;;;;;;;;;22.70;92.20;;;;;;5109124;28;19922;-78
2023/10/25 12:31:50;;;;;;;;;;;22.50;92.10;;;;;;5090356;28;20002;-74
2023/10/25 12:34:16;;;;;;;;;;;22.30;92.00;;;;;;5109851;28;19911;-77
2023/10/25 12:36:42;;;;;;;;;;;21.80;91.70;;;;;;5091770;28;19912;-79
2023/10/25 12:39:07;;;;;;;;;;;21.20;91.50;;;;;;5092555;28;19912;-80
2023/10/25 12:41:33;;;;;;;;;;;20.60;91.60;;;;;;5092732;28;19912;-78
2023/10/25 12:43:59;;;;;;;;;;;20.10;91.70;;;;;;5092155;28;20522;-79
2023/10/25 12:46:24;;;;;;;;;;;19.70;91.80;;;;;;5090776;28;20026;-76
2023/10/25 12:48:50;;;;;;;;;;;19.30;91.70;;;;;;5110000;28;19908;-78
2023/10/25 12:51:16;;;;;;;;;;;19.00;91.60;;;;;;5110095;28;20364;-76
2023/10/25 12:53:41;;;;;;;;;;;18.80;91.60;;;;;;5111349;28;19912;-75
2023/10/25 12:56:07;;;;;;;;;;;18.60;91.50;;;;;;5110006;28;19912;-79
2023/10/25 12:58:33;;;;;;;;;;;18.40;91.40;;;;;;5109031;28;19912;-79
2023/10/25 13:00:59;;;;;;;;;;;18.30;91.50;;;;;;5109340;28;19908;-76
2023/10/25 13:03:24;;;;;;;;;;;18.10;91.40;;;;;;5108985;28;19931;-76
2023/10/25 13:05:51;;;;;;;;;;;18.10;91.30;;;;;;5109291;28;19912;-76
2023/10/25 13:08:16;;;;;;;;;;;18.00;91.20;;;;;;5110032;28;20382;-76
2023/10/25 13:10:42;;;;;;;;;;;17.90;91.10;;;;;;5109641;28;19912;-71
2023/10/25 13:13:07;;;;;;;;;;;17.80;91.00;;;;;;5091473;28;19912;-73
2023/10/25 13:15:33;;;;;;;;;;;17.60;91.00;;;;;;5110240;28;19908;-77
2023/10/25 13:17:59;;;;;;;;;;;17.50;91.20;;;;;;5108616;28;20352;-76
2023/10/25 13:20:24;;;;;;;;;;;17.40;91.10;;;;;;5108727;28;19961;-77
2023/10/25 13:22:50;;;;;;;;;;;17.50;91.10;;;;;;5108643;28;19912;-75
2023/10/25 13:25:15;;;;;;;;;;;17.50;91.00;;;;;;5109114;28;19918;-81
2023/10/25 13:27:41;;;;;;;;;;;17.50;90.80;;;;;;5092079;28;19911;-76
2023/10/25 13:30:07;;;;;;;;;;;17.60;90.70;;;;;;5108744;28;20007;-77
2023/10/25 13:32:32;;;;;;;;;;;17.50;90.60;;;;;;5109592;28;20244;-75
2023/10/25 13:34:58;;;;;;;;;;;17.40;90.70;;;;;;5109300;28;19912;-77
2023/10/25 13:37:24;;;;;;;;;;;17.40;90.60;;;;;;5108366;28;20136;-74
2023/10/25 13:39:49;;;;;;;;;;;17.40;90.50;;;;;;5109005;28;20006;-77
2023/10/25 13:42:16;;;;;;;;;;;17.40;90.40;;;;;;5107400;28;20016;-75
2023/10/25 13:44:41;;;;;;;;;;;17.30;90.30;;;;;;5087353;28;19912;-74
2023/10/25 13:47:09;;;;;;;;;;;17.20;90.20;;;;;;5089449;28;19923;-76
2023/10/25 13:49:34;;;;;;;;;;;17.10;90.20;;;;;;5107461;28;19960;-75
2023/10/25 13:52:00;;;;;;;;;;;17.00;90.10;;;;;;5088861;28;19950;-74
2023/10/25 13:54:27;;;;;;;;;;;16.90;90.20;;;;;;5106120;28;20271;-75
2023/10/25 13:56:52;;;;;;;;;;;16.80;90.10;;;;;;5107279;28;19911;-77
2023/10/25 13:59:18;;;;;;;;;;;16.70;90.10;;;;;;5107661;28;19912;-74
2023/10/25 14:01:43;;;;;;;;;;;16.60;90.10;;;;;;5108500;28;20271;-75
2023/10/25 14:04:12;;;;;;;;;;;16.50;90.10;;;;;;5104781;28;19924;-78
2023/10/25 14:06:37;;;;;;;;;;;16.40;90.10;;;;;;5094054;28;19912;-72
2023/10/25 14:09:04;;;;;;;;;;;16.30;90.10;;;;;;5113628;28;19914;-74
2023/10/25 14:11:29;;;;;;;;;;;16.30;90.10;;;;;;5094774;28;20004;-75
2023/10/25 14:13:56;;;;;;;;;;;16.20;90.10;;;;;;5074897;28;20403;-78
2023/10/25 14:16:21;;;;;;;;;;;16.20;90.10;;;;;;5112372;28;19908;-78
2023/10/25 14:18:47;;;;;;;;;;;16.20;90.10;;;;;;5095505;28;19912;-74